Time;durP1;ratioP1;P1;durP2;ratioP2;P2;SDS_P1;SDS_P2;PMS_P1;PMS_P2;Temp;Humidity;BMP_temperature;BMP_pressure;BME280_temperature;BME280_humidity;BME280_pressure;Samples;Min_cycle;Max_cycle;Signal;HPM_P1;HPM_P2
2023/10/17 00:01:47;;;;;;;7.27;4.80;;;;;;;9.70;56.58;95331.25;5057586;28;20536;-76
2023/10/17 00:04:26;;;;;;;5.30;4.80;;;;;;;9.68;56.12;95327.91;5076153;28;20447;-76
2023/10/17 00:06:57;;;;;;;4.87;4.20;;;;;;;9.72;57.09;95312.78;5076108;28;20542;-76
2023/10/17 00:09:24;;;;;;;5.10;4.70;;;;;;;9.75;57.32;95313.38;5057743;28;20949;-76
2023/10/17 00:12:00;;;;;;;4.63;4.13;;;;;;;9.79;56.74;95314.81;5075770;28;20482;-76
2023/10/17 00:14:34;;;;;;;6.03;5.43;;;;;;;9.84;56.55;95311.88;5040433;28;20794;-76
2023/10/17 00:17:03;;;;;;;5.03;4.53;;;;;;;9.83;56.53;95305.81;5075624;28;21012;-76
2023/10/17 00:19:32;;;;;;;6.40;4.83;;;;;;;9.82;56.26;95298.03;5075906;28;20811;-76
2023/10/17 00:22:02;;;;;;;5.70;5.00;;;;;;;9.78;57.58;95289.56;5075694;28;20957;-76
2023/10/17 00:24:29;;;;;;;3.90;3.60;;;;;;;9.77;56.78;95298.38;5075779;28;20443;-76
2023/10/17 00:26:56;;;;;;;5.23;4.60;;;;;;;9.76;56.46;95294.09;5075982;28;20455;-76
2023/10/17 00:29:23;;;;;;;4.17;3.77;;;;;;;9.78;56.87;95297.44;5075323;28;20754;-76
2023/10/17 00:31:50;;;;;;;5.50;4.43;;;;;;;9.79;57.71;95293.03;5075345;28;20447;-76
2023/10/17 00:34:17;;;;;;;5.33;4.50;;;;;;;9.74;57.48;95296.00;5075729;28;20440;-76
2023/10/17 00:36:50;;;;;;;5.80;4.70;;;;;;;9.72;58.05;95295.28;5075289;28;20443;-76
2023/10/17 00:39:29;;;;;;;6.90;4.43;;;;;;;9.68;57.81;95291.22;5075690;28;20505;-76
2023/10/17 00:42:17;;;;;;;5.60;4.10;;;;;;;9.46;58.16;95285.91;5075601;28;20907;-76
2023/10/17 00:44:47;;;;;;;5.80;4.73;;;;;;;9.53;59.18;95284.50;5075733;28;20457;-76
2023/10/17 00:47:18;;;;;;;5.47;4.03;;;;;;;9.54;59.45;95291.41;5039771;28;20950;-76
2023/10/17 00:49:46;;;;;;;4.80;4.40;;;;;;;9.56;58.71;95281.66;5074788;28;20536;-76
2023/10/17 00:52:19;;;;;;;8.63;4.47;;;;;;;9.55;58.58;95291.31;5075188;28;20446;-76
2023/10/17 00:54:50;;;;;;;5.23;4.27;;;;;;;9.58;58.97;95291.09;5075219;28;20494;-76
2023/10/17 00:57:18;;;;;;;6.27;4.70;;;;;;;9.58;58.94;95287.63;5074805;28;20440;-77
2023/10/17 00:59:50;;;;;;;5.17;4.40;;;;;;;9.54;59.39;95280.91;5074510;28;20490;-76
2023/10/17 01:02:20;;;;;;;6.70;4.37;;;;;;;9.60;59.31;95283.09;5074399;28;20451;-77
2023/10/17 01:04:47;;;;;;;6.30;4.53;;;;;;;9.58;59.80;95279.78;5074871;28;20516;-76
2023/10/17 01:07:23;;;;;;;4.60;3.70;;;;;;;9.53;59.87;95281.88;5074382;28;20455;-76
2023/10/17 01:09:55;;;;;;;9.37;5.53;;;;;;;9.50;60.45;95274.25;5074564;28;20451;-76
2023/10/17 01:12:26;;;;;;;4.80;4.40;;;;;;;9.50;60.42;95282.09;5074112;28;20505;-76
2023/10/17 01:14:53;;;;;;;9.30;5.60;;;;;;;9.52;61.08;95282.81;5074387;28;20992;-76
2023/10/17 01:17:23;;;;;;;5.57;4.37;;;;;;;9.53;60.61;95282.72;5074305;28;20480;-76
2023/10/17 01:19:53;;;;;;;6.30;4.90;;;;;;;9.57;60.61;95285.97;5074020;28;20487;-76
2023/10/17 01:22:20;;;;;;;4.40;4.00;;;;;;;9.54;60.55;95283.53;5074188;28;20470;-76
2023/10/17 01:24:48;;;;;;;4.90;4.30;;;;;;;9.56;61.27;95281.66;5073772;28;20443;-76
2023/10/17 01:27:16;;;;;;;5.00;4.60;;;;;;;9.58;60.85;95292.88;5074159;28;20451;-76
2023/10/17 01:29:44;;;;;;;7.50;4.33;;;;;;;9.60;60.54;95297.03;5074149;28;20455;-76
2023/10/17 01:32:11;;;;;;;7.57;5.10;;;;;;;9.59;61.51;95291.91;5074069;28;20795;-76
2023/10/17 01:34:39;;;;;;;6.50;4.80;;;;;;;9.54;62.08;95289.66;5073857;28;20454;-76
2023/10/17 01:37:07;;;;;;;6.10;5.27;;;;;;;9.54;61.31;95289.66;5073618;28;20455;-76
2023/10/17 01:39:34;;;;;;;10.60;4.90;;;;;;;9.49;62.00;95285.66;5073695;28;20480;-76
2023/10/17 01:42:04;;;;;;;4.73;4.23;;;;;;;9.47;62.55;95290.19;5073845;28;20446;-76
2023/10/17 01:44:31;;;;;;;5.87;4.30;;;;;;;9.43;62.34;95280.91;5073897;28;20501;-76
2023/10/17 01:46:57;;;;;;;7.90;4.87;;;;;;;9.35;63.18;95286.72;5073840;28;20449;-76
2023/10/17 01:49:27;;;;;;;6.37;3.60;;;;;;;9.31;63.00;95280.88;5073833;28;20460;-76
2023/10/17 01:51:57;;;;;;;4.37;3.97;;;;;;;9.35;63.31;95280.63;5039901;28;20843;-76
2023/10/17 01:54:27;;;;;;;7.27;4.27;;;;;;;9.31;64.40;95283.47;5073959;28;20444;-76
2023/10/17 01:57:04;;;;;;;11.63;4.30;;;;;;;9.29;64.46;95285.38;5073911;28;20443;-77
2023/10/17 01:59:34;;;;;;;7.47;4.90;;;;;;;9.27;64.89;95276.81;5073601;28;20522;-76
2023/10/17 02:02:03;;;;;;;10.03;4.40;;;;;;;9.32;64.80;95282.53;5072902;28;20451;-76
2023/10/17 02:04:30;;;;;;;4.83;3.97;;;;;;;9.35;64.78;95283.25;5073631;28;20463;-76
2023/10/17 02:06:58;;;;;;;4.37;3.97;;;;;;;9.38;65.22;95277.78;5073726;28;20487;-76
2023/10/17 02:09:44;;;;;;;4.30;3.90;;;;;;;9.40;65.20;95281.97;5054554;28;20469;-76
2023/10/17 02:12:11;;;;;;;5.20;4.30;;;;;;;9.41;65.32;95272.31;5073595;28;20441;-76
2023/10/17 02:14:41;;;;;;;5.73;4.60;;;;;;;9.44;66.04;95266.84;5073351;28;20771;-76
2023/10/17 02:17:09;;;;;;;8.50;4.20;;;;;;;9.48;65.76;95269.13;5073570;28;20508;-76
2023/10/17 02:19:38;;;;;;;8.33;4.37;;;;;;;9.46;66.42;95271.03;5073556;28;20490;-76
2023/10/17 02:22:09;;;;;;;7.80;5.17;;;;;;;9.45;66.48;95271.97;5073374;28;20448;-76
2023/10/17 02:24:37;;;;;;;5.63;3.60;;;;;;;9.29;66.43;95264.44;5073494;28;20449;-76
2023/10/17 02:27:11;;;;;;;10.50;4.20;;;;;;;9.28;67.07;95257.53;5073337;28;20444;-76
2023/10/17 02:29:39;;;;;;;7.30;4.80;;;;;;;9.32;67.94;95268.59;5073206;28;20444;-76
2023/10/17 02:32:11;;;;;;;5.60;4.10;;;;;;;9.36;68.48;95264.81;5073542;28;20451;-76
2023/10/17 02:34:38;;;;;;;4.30;3.90;;;;;;;9.27;67.65;95268.13;5073308;28;20501;-76
2023/10/17 02:37:10;;;;;;;7.93;4.87;;;;;;;9.15;68.35;95256.75;5073022;28;20500;-76
2023/10/17 02:39:38;;;;;;;16.97;5.30;;;;;;;9.12;68.58;95269.22;5072791;28;20499;-76
2023/10/17 02:42:08;;;;;;;8.27;5.37;;;;;;;9.14;69.15;95265.53;5072969;28;20493;-76
2023/10/17 02:44:35;;;;;;;5.03;4.13;;;;;;;9.17;68.93;95265.31;5072869;28;20447;-75
2023/10/17 02:47:05;;;;;;;4.00;3.67;;;;;;;9.15;69.08;95267.22;5073216;28;20484;-75
2023/10/17 02:49:38;;;;;;;5.83;4.80;;;;;;;9.16;68.95;95271.50;5072742;28;20442;-75
2023/10/17 02:52:05;;;;;;;7.97;4.27;;;;;;;9.09;69.60;95266.84;5073018;28;20645;-75
2023/10/17 02:54:42;;;;;;;5.20;4.70;;;;;;;9.12;69.54;95262.19;5072582;28;20445;-75
2023/10/17 02:57:09;;;;;;;7.80;4.50;;;;;;;9.16;69.68;95261.03;5072723;28;20853;-75
2023/10/17 02:59:36;;;;;;;14.63;4.70;;;;;;;9.21;69.46;95261.50;5073076;28;20436;-75
2023/10/17 03:02:06;;;;;;;6.20;4.90;;;;;;;9.20;69.77;95267.69;5073141;28;20435;-75
2023/10/17 03:04:36;;;;;;;5.87;5.27;;;;;;;9.27;69.80;95261.09;5072795;28;20451;-75
2023/10/17 03:07:07;;;;;;;31.73;5.40;;;;;;;9.27;70.90;95266.34;5072826;28;20448;-75
2023/10/17 03:09:37;;;;;;;5.00;3.87;;;;;;;9.32;71.13;95265.97;5072944;28;20471;-75
2023/10/17 03:12:19;;;;;;;11.47;5.40;;;;;;;9.34;71.26;95260.63;5072375;28;20448;-75
2023/10/17 03:17:30;;;;;;;9.80;5.80;;;;;;;9.18;74.22;95280.06;5072832;28;20550;-75
2023/10/17 03:19:59;;;;;;;11.40;5.53;;;;;;;9.32;73.80;95279.91;5071454;28;21030;-74
2023/10/17 03:22:27;;;;;;;8.70;5.23;;;;;;;9.35;73.59;95264.91;5071675;28;20443;-75
2023/10/17 03:25:01;;;;;;;11.00;5.33;;;;;;;9.22;74.76;95281.50;5072392;28;20456;-75
2023/10/17 03:27:36;;;;;;;7.23;6.53;;;;;;;9.27;74.10;95265.50;5072562;28;20443;-76
2023/10/17 03:30:05;;;;;;;6.97;5.77;;;;;;;9.15;75.23;95258.53;5072520;28;20581;-75
2023/10/17 03:32:33;;;;;;;7.67;6.03;;;;;;;8.93;76.76;95259.25;5030654;28;20464;-75
2023/10/17 03:35:03;;;;;;;7.83;6.43;;;;;;;9.12;76.32;95256.13;5070502;28;20447;-75
2023/10/17 03:37:29;;;;;;;8.20;6.07;;;;;;;8.97;76.48;95258.94;5072289;28;20980;-75
2023/10/17 03:39:57;;;;;;;11.30;5.90;;;;;;;9.11;76.61;95265.78;5072504;28;20487;-76
2023/10/17 03:42:44;;;;;;;11.93;6.10;;;;;;;9.13;76.81;95269.09;5072240;28;20449;-75
2023/10/17 03:45:23;;;;;;;8.00;5.73;;;;;;;9.26;76.47;95269.91;5036763;28;20436;-76
2023/10/17 03:47:54;;;;;;;6.20;5.53;;;;;;;9.37;76.05;95270.88;5072373;28;20440;-76
2023/10/17 03:50:36;;;;;;;11.23;4.90;;;;;;;9.43;75.10;95262.56;5037520;28;20532;-75
2023/10/17 03:53:07;;;;;;;8.50;5.50;;;;;;;9.41;75.70;95264.47;5072487;28;20470;-75
2023/10/17 03:55:35;;;;;;;6.70;5.20;;;;;;;9.48;75.19;95257.81;5071967;28;20449;-75
2023/10/17 03:58:08;;;;;;;6.60;5.87;;;;;;;9.57;75.26;95270.25;5071870;28;20502;-76
2023/10/17 04:00:44;;;;;;;6.30;5.70;;;;;;;9.65;74.85;95270.50;5071681;28;21000;-76
2023/10/17 04:03:19;;;;;;;6.70;5.83;;;;;;;9.69;74.05;95261.44;5072071;28;20546;-76
2023/10/17 04:05:50;;;;;;;12.00;6.47;;;;;;;9.73;73.83;95260.25;5072161;28;20440;-75
2023/10/17 04:08:18;;;;;;;5.83;5.23;;;;;;;9.56;75.48;95263.34;5071993;28;20556;-75
2023/10/17 04:10:49;;;;;;;7.33;4.90;;;;;;;9.50;76.06;95263.75;5072013;28;20764;-75
2023/10/17 04:13:23;;;;;;;8.30;5.50;;;;;;;9.54;76.09;95258.22;5071773;28;20440;-75
2023/10/17 04:15:50;;;;;;;11.20;6.10;;;;;;;9.58;76.22;95269.28;5036675;28;20475;-76
2023/10/17 04:18:22;;;;;;;9.40;5.37;;;;;;;9.56;76.31;95266.78;5071196;28;20441;-76
2023/10/17 04:20:58;;;;;;;7.93;5.60;;;;;;;9.65;76.35;95267.88;5071626;28;20480;-76
2023/10/17 04:23:27;;;;;;;5.10;4.60;;;;;;;9.58;76.27;95258.81;5072056;28;20436;-75
2023/10/17 04:25:57;;;;;;;5.90;5.20;;;;;;;9.61;76.47;95266.44;5075060;28;20438;-75
2023/10/17 04:28:27;;;;;;;8.97;4.90;;;;;;;9.61;76.91;95254.16;5075649;28;20454;-76
2023/10/17 04:30:57;;;;;;;6.07;5.57;;;;;;;9.71;76.31;95256.09;5075253;28;20435;-78
2023/10/17 04:33:28;;;;;;;5.63;5.00;;;;;;;9.65;75.62;95259.19;5041262;28;20482;-77
2023/10/17 04:36:00;;;;;;;13.80;6.23;;;;;;;9.85;79.00;95267.22;5075004;28;20445;-81
2023/10/17 04:38:38;;;;;;;9.90;5.63;;;;;;;9.85;75.44;95261.97;5075246;28;20489;-76
2023/10/17 04:41:30;;;;;;;9.30;5.80;;;;;;;9.85;75.90;95267.22;5075031;28;20490;-75
2023/10/17 04:44:02;;;;;;;9.93;6.93;;;;;;;9.92;76.14;95247.44;5074752;28;20447;-74
2023/10/17 04:46:29;;;;;;;9.83;6.00;;;;;;;9.71;76.62;95249.06;5074160;28;20531;-75
2023/10/17 04:49:05;;;;;;;19.07;5.47;;;;;;;9.62;76.55;95245.38;5074669;28;20455;-75
2023/10/17 04:51:38;;;;;;;6.43;5.40;;;;;;;9.72;77.69;95247.28;5074733;28;20532;-75
2023/10/17 04:54:20;;;;;;;9.90;5.53;;;;;;;9.77;76.48;95259.06;5038007;28;20440;-74
2023/10/17 04:57:00;;;;;;;7.83;5.20;;;;;;;9.81;76.58;95255.28;5073124;28;20455;-75
2023/10/17 06:16:52;;;;;;;15.63;5.33;;;;;;;11.83;68.48;95297.00;4990307;28;20475;-75
2023/10/17 06:19:24;;;;;;;14.30;4.97;;;;;;;11.97;68.30;95299.31;4959492;28;21011;-74
2023/10/17 06:25:41;;;;;;;16.10;4.80;;;;;;;12.26;65.97;95305.59;4990759;28;20481;-75
2023/10/17 06:30:33;;;;;;;4.67;4.27;;;;;;;12.09;67.87;95304.38;4990544;28;20810;-75
2023/10/17 06:33:17;;;;;;;7.03;4.60;;;;;;;12.40;68.60;95312.28;4990719;28;20444;-75
2023/10/17 06:35:45;;;;;;;12.73;4.87;;;;;;;12.45;65.07;95304.88;4990693;28;20917;-74
2023/10/17 06:38:15;;;;;;;4.67;4.23;;;;;;;12.35;64.41;95301.34;4990557;28;20532;-75
2023/10/17 06:40:45;;;;;;;3.47;3.27;;;;;;;12.51;63.83;95298.25;4990619;28;20486;-75
2023/10/17 06:43:27;;;;;;;4.70;3.70;;;;;;;12.55;64.49;95294.38;4990740;28;20441;-75
2023/10/17 06:45:57;;;;;;;7.33;3.80;;;;;;;12.89;62.71;95298.38;4958096;28;20871;-75
2023/10/17 06:48:34;;;;;;;3.90;3.60;;;;;;;13.23;62.27;95305.97;4990052;28;20508;-75
2023/10/17 06:53:48;;;;;;;3.80;3.50;;;;;;;13.31;60.71;95308.78;5043576;28;20434;-75
2023/10/17 06:56:17;;;;;;;5.57;3.47;;;;;;;13.29;61.10;95310.69;5071869;28;20443;-74
2023/10/17 06:58:44;;;;;;;11.07;4.60;;;;;;;13.40;60.91;95313.22;5071997;28;20452;-75
2023/10/17 07:01:26;;;;;;;6.23;3.70;;;;;;;13.32;60.74;95300.75;5071978;28;20527;-75
2023/10/17 07:03:55;;;;;;;6.60;3.60;;;;;;;13.45;62.29;95297.00;5071648;28;20446;-75
2023/10/17 07:06:24;;;;;;;3.47;3.20;;;;;;;13.43;61.54;95297.13;5071734;28;20447;-74
2023/10/17 07:08:52;;;;;;;3.73;3.30;;;;;;;13.28;60.30;95285.31;5072212;28;20521;-75
2023/10/17 07:11:29;;;;;;;7.87;3.50;;;;;;;12.90;60.70;95289.50;5072260;28;20474;-75
2023/10/17 07:14:21;;;;;;;3.63;3.33;;;;;;;13.09;65.61;95280.00;5071894;28;20480;-75
2023/10/17 07:16:57;;;;;;;3.50;3.20;;;;;;;13.31;64.72;95278.00;5071871;28;20475;-74
2023/10/17 07:22:11;;;;;;;8.27;3.30;;;;;;;13.48;63.55;95284.38;5071818;28;20538;-75
2023/10/17 07:24:42;;;;;;;6.40;4.30;;;;;;;13.58;61.00;95279.91;5071799;28;20451;-74
2023/10/17 07:27:18;;;;;;;8.40;3.20;;;;;;;13.60;59.78;95270.09;5071728;28;20861;-74
2023/10/17 07:29:58;;;;;;;16.10;6.47;;;;;;;13.33;61.38;95259.41;5071802;28;20455;-74
2023/10/17 07:32:32;;;;;;;6.53;3.87;;;;;;;13.23;61.16;95253.25;5069520;28;20441;-75
2023/10/17 07:35:04;;;;;;;6.47;3.50;;;;;;;13.27;61.67;95262.56;5071591;28;20441;-74
2023/10/17 07:37:34;;;;;;;7.60;3.27;;;;;;;13.30;62.57;95254.41;5071607;28;20504;-74
2023/10/17 07:40:21;;;;;;;7.87;4.00;;;;;;;13.24;60.75;95249.66;5071865;28;20453;-74
2023/10/17 07:42:48;;;;;;;12.80;3.07;;;;;;;13.22;62.21;95259.50;5071472;28;20798;-75
2023/10/17 07:45:15;;;;;;;5.80;2.87;;;;;;;13.20;61.08;95253.53;5071687;28;20436;-74
2023/10/17 07:47:44;;;;;;;4.87;3.43;;;;;;;13.23;60.36;95255.91;5071732;28;20985;-75
2023/10/17 07:50:13;;;;;;;4.50;2.63;;;;;;;13.43;64.64;95254.94;5071575;28;20435;-74
2023/10/17 07:52:43;;;;;;;3.13;2.83;;;;;;;13.45;60.26;95255.66;5071621;28;20448;-75
2023/10/17 07:55:22;;;;;;;3.47;3.17;;;;;;;13.45;61.78;95253.00;5071452;28;20469;-74
2023/10/17 07:57:52;;;;;;;3.00;2.53;;;;;;;13.51;59.40;95246.34;5054475;28;20949;-75
2023/10/17 08:00:26;;;;;;;3.20;2.90;;;;;;;13.51;59.43;95241.06;5074152;28;20450;-75
2023/10/17 08:02:56;;;;;;;8.57;3.00;;;;;;;13.50;59.47;95239.41;5075064;28;20443;-74
2023/10/17 08:05:25;;;;;;;5.17;3.30;;;;;;;13.61;61.13;95250.66;5075088;28;20984;-75
2023/10/17 08:08:03;;;;;;;3.47;3.17;;;;;;;13.84;61.55;95247.69;5074921;28;21081;-75
2023/10/17 08:10:33;;;;;;;3.70;2.80;;;;;;;13.97;58.47;95250.88;5074950;28;20959;-74
2023/10/17 08:13:02;;;;;;;4.30;3.37;;;;;;;14.02;56.82;95243.38;5074949;28;20437;-74
2023/10/17 08:15:36;;;;;;;4.77;2.93;;;;;;;14.02;58.20;95250.47;5074909;28;20532;-74
2023/10/17 08:18:14;;;;;;;2.53;2.33;;;;;;;14.11;58.69;95245.16;5074735;28;20442;-75
2023/10/17 08:20:54;;;;;;;4.53;3.17;;;;;;;14.10;58.98;95247.94;5074489;28;21079;-75
2023/10/17 08:23:25;;;;;;;10.20;3.67;;;;;;;14.16;58.84;95242.91;5042981;28;20446;-74
2023/10/17 08:25:59;;;;;;;7.23;2.90;;;;;;;14.13;56.95;95253.75;5074552;28;20953;-74
2023/10/17 08:28:33;;;;;;;5.63;2.90;;;;;;;14.16;56.06;95242.06;5056970;28;20444;-74
2023/10/17 08:31:17;;;;;;;6.80;3.10;;;;;;;14.11;56.71;95237.22;5055744;28;20471;-74
2023/10/17 08:33:52;;;;;;;4.47;2.97;;;;;;;14.11;58.13;95247.78;5074426;28;20459;-75
2023/10/17 08:36:23;;;;;;;6.03;2.77;;;;;;;14.08;58.62;95247.25;5074566;28;20445;-74
2023/10/17 08:38:54;;;;;;;5.40;3.20;;;;;;;13.97;56.33;95247.41;5074513;28;20451;-75
2023/10/17 08:41:22;;;;;;;4.00;3.23;;;;;;;13.92;57.11;95245.22;5074284;28;20491;-74
2023/10/17 08:43:49;;;;;;;6.17;3.67;;;;;;;13.78;56.56;95235.09;5074539;28;20470;-75
2023/10/17 08:46:17;;;;;;;3.67;3.37;;;;;;;13.83;57.64;95235.47;5074433;28;20806;-75
2023/10/17 08:48:44;;;;;;;3.60;3.30;;;;;;;13.86;57.33;95235.19;5074353;28;20455;-74
2023/10/17 08:51:15;;;;;;;9.80;3.83;;;;;;;13.92;57.16;95235.50;5074395;28;20507;-74
2023/10/17 08:53:42;;;;;;;3.17;2.93;;;;;;;13.97;57.66;95237.69;5074214;28;20471;-75
2023/10/17 08:56:13;;;;;;;4.30;4.00;;;;;;;13.97;57.17;95244.78;5055578;28;20466;-74
2023/10/17 08:58:43;;;;;;;5.80;3.00;;;;;;;13.98;56.52;95242.00;5056064;28;20441;-74
2023/10/17 09:01:14;;;;;;;3.97;2.90;;;;;;;14.02;57.88;95246.00;5073974;28;20564;-74
2023/10/17 09:03:43;;;;;;;3.93;3.13;;;;;;;13.92;58.62;95239.94;5073954;28;20451;-74
2023/10/17 09:08:55;;;;;;;9.80;3.17;;;;;;;13.82;56.67;95239.94;5073751;28;20515;-74
2023/10/17 09:11:33;;;;;;;4.70;3.53;;;;;;;13.78;56.07;95235.09;5073447;28;20448;-74
2023/10/17 09:14:17;;;;;;;15.70;3.33;;;;;;;13.83;56.89;95238.97;5074032;28;20496;-74
2023/10/17 09:17:03;;;;;;;4.33;2.63;;;;;;;13.76;56.68;95237.03;5073830;28;20583;-75
2023/10/17 09:19:39;;;;;;;5.87;5.33;;;;;;;13.64;56.05;95229.28;5073608;28;20442;-75
2023/10/17 09:22:10;;;;;;;6.73;3.90;;;;;;;13.81;57.49;95226.88;5073405;28;20955;-74
2023/10/17 09:24:37;;;;;;;5.70;4.00;;;;;;;13.56;56.10;95215.94;5072897;28;20960;-74
2023/10/17 09:27:09;;;;;;;4.37;3.40;;;;;;;13.69;58.39;95209.56;5073103;28;20458;-74
2023/10/17 09:29:44;;;;;;;3.30;3.00;;;;;;;13.64;56.96;95208.19;5073604;28;20440;-75
2023/10/17 09:32:11;;;;;;;5.63;3.37;;;;;;;13.71;57.85;95210.25;5073112;28;20447;-74
2023/10/17 09:34:41;;;;;;;10.97;7.23;;;;;;;13.77;56.98;95201.75;5072744;28;20445;-74
2023/10/17 09:37:13;;;;;;;4.43;4.03;;;;;;;13.82;59.90;95202.16;5073392;28;20436;-75
2023/10/17 09:39:47;;;;;;;6.70;3.43;;;;;;;13.82;58.08;95196.91;5072909;28;20501;-75
2023/10/17 09:42:14;;;;;;;5.77;3.60;;;;;;;13.98;57.49;95193.69;5037083;28;20894;-75
2023/10/17 09:44:42;;;;;;;11.70;7.23;;;;;;;13.87;56.22;95186.75;5072787;28;20500;-75
2023/10/17 09:47:10;;;;;;;9.53;5.10;;;;;;;13.99;56.92;95182.97;5073062;28;20439;-74
2023/10/17 09:49:44;;;;;;;10.40;3.37;;;;;;;14.06;57.07;95177.94;5072750;28;20433;-74
2023/10/17 09:52:14;;;;;;;3.10;2.83;;;;;;;14.00;57.00;95174.09;5072878;28;20458;-75
2023/10/17 09:54:43;;;;;;;5.63;3.00;;;;;;;14.01;56.47;95172.28;5072718;28;20495;-74
2023/10/17 09:57:14;;;;;;;10.43;4.10;;;;;;;14.10;58.31;95166.13;5072579;28;20453;-74
2023/10/17 09:59:47;;;;;;;10.13;4.10;;;;;;;14.11;56.54;95170.44;5072981;28;20439;-75
2023/10/17 10:02:17;;;;;;;6.47;3.80;;;;;;;14.15;55.86;95175.25;5072465;28;20480;-74
2023/10/17 10:04:44;;;;;;;10.63;3.47;;;;;;;14.24;56.46;95171.78;5036903;28;20439;-74
2023/10/17 10:07:23;;;;;;;3.33;3.07;;;;;;;14.33;55.82;95174.50;5072384;28;20493;-74
2023/10/17 10:09:49;;;;;;;3.97;3.53;;;;;;;14.36;56.49;95169.78;5072009;28;20443;-74
2023/10/17 10:12:17;;;;;;;7.10;4.43;;;;;;;14.40;56.25;95162.38;5053243;28;20448;-74
2023/10/17 10:14:43;;;;;;;8.63;4.07;;;;;;;14.37;56.04;95155.59;5072139;28;20456;-74
2023/10/17 10:17:14;;;;;;;5.57;3.70;;;;;;;14.37;55.00;95154.75;5072265;28;20499;-74
2023/10/17 10:20:00;;;;;;;10.73;4.60;;;;;;;14.42;55.23;95152.50;5071842;28;20451;-74
2023/10/17 10:22:54;;;;;;;7.27;4.57;;;;;;;14.38;54.04;95157.25;5071133;28;20887;-75
2023/10/17 10:25:22;;;;;;;6.53;3.30;;;;;;;14.34;55.60;95155.06;5072005;28;20433;-74
2023/10/17 10:27:50;;;;;;;5.90;3.40;;;;;;;14.27;55.13;95155.66;5036475;28;20448;-74
2023/10/17 10:30:36;;;;;;;7.33;5.03;;;;;;;14.35;54.90;95157.53;5071943;28;20451;-74
2023/10/17 10:33:04;;;;;;;7.20;5.83;;;;;;;14.32;55.52;95155.19;5021273;28;20812;-75
2023/10/17 10:35:33;;;;;;;5.57;3.40;;;;;;;14.27;55.67;95146.91;5053394;28;20454;-74
2023/10/17 10:38:01;;;;;;;3.60;3.27;;;;;;;14.35;56.41;95148.78;5071890;28;20463;-74
2023/10/17 10:40:32;;;;;;;4.00;3.20;;;;;;;14.37;56.01;95150.31;5071936;28;20552;-74
2023/10/17 10:43:01;;;;;;;3.83;3.30;;;;;;;14.44;56.75;95145.28;5037294;28;20586;-74
2023/10/17 10:45:35;;;;;;;10.87;7.00;;;;;;;14.45;55.33;95145.16;5071908;28;20437;-74
2023/10/17 10:48:04;;;;;;;8.97;5.80;;;;;;;14.51;55.93;95139.31;5071616;28;20496;-75
2023/10/17 10:50:33;;;;;;;16.67;10.40;;;;;;;14.33;54.85;95150.75;5072021;28;20428;-75
2023/10/17 10:53:03;;;;;;;8.57;7.33;;;;;;;14.36;57.15;95137.25;5071585;28;20452;-75
2023/10/17 10:55:31;;;;;;;28.70;15.97;;;;;;;14.21;55.45;95140.41;5071384;28;20816;-74
2023/10/17 10:58:03;;;;;;;18.03;10.27;;;;;;;14.20;55.31;95149.28;5071627;28;20502;-75
2023/10/17 11:00:31;;;;;;;26.97;15.10;;;;;;;14.04;55.86;95148.25;5071408;28;20943;-74
2023/10/17 11:02:59;;;;;;;13.33;9.37;;;;;;;14.01;57.59;95148.53;5052398;28;20695;-74
2023/10/17 11:05:26;;;;;;;5.33;4.00;;;;;;;14.09;58.24;95141.53;5071657;28;20447;-75
2023/10/17 11:08:01;;;;;;;12.07;7.93;;;;;;;14.03;57.93;95142.13;5071755;28;20443;-74
2023/10/17 11:10:29;;;;;;;16.03;9.73;;;;;;;13.97;59.32;95129.53;5071260;28;20436;-74
2023/10/17 11:12:56;;;;;;;19.70;12.60;;;;;;;13.84;57.71;95131.63;5071677;28;20448;-74
2023/10/17 11:15:27;;;;;;;9.17;7.07;;;;;;;13.88;58.32;95133.88;5071405;28;20927;-74
2023/10/17 11:18:06;;;;;;;14.70;7.83;;;;;;;13.91;57.25;95127.47;5071432;28;20514;-74
2023/10/17 11:20:34;;;;;;;11.07;8.97;;;;;;;13.95;58.51;95124.38;5036190;28;20440;-74
2023/10/17 11:23:04;;;;;;;7.17;5.23;;;;;;;13.98;58.72;95122.44;5071242;28;20516;-74
2023/10/17 11:25:34;;;;;;;7.40;6.17;;;;;;;14.01;57.77;95112.41;5071319;28;20444;-74
2023/10/17 11:28:06;;;;;;;6.70;4.63;;;;;;;14.05;56.85;95108.50;5071172;28;20540;-74
2023/10/17 11:30:36;;;;;;;7.10;4.70;;;;;;;14.06;56.80;95099.63;5071343;28;20461;-74
2023/10/17 11:33:04;;;;;;;7.87;4.20;;;;;;;14.11;57.34;95084.16;5072030;28;20447;-74
2023/10/17 11:35:34;;;;;;;7.63;4.93;;;;;;;14.13;56.38;95087.50;5075264;28;20475;-74
2023/10/17 11:38:03;;;;;;;9.90;7.30;;;;;;;14.02;56.88;95081.59;5040317;28;20448;-74
2023/10/17 11:40:31;;;;;;;15.97;11.10;;;;;;;14.07;56.71;95087.25;5074872;28;20443;-74
2023/10/17 11:42:59;;;;;;;53.90;32.23;;;;;;;14.17;57.00;95077.50;5075075;28;20538;-74
2023/10/17 11:45:33;;;;;;;31.27;19.50;;;;;;;14.20;56.06;95085.94;5075339;28;20950;-75
2023/10/17 11:48:14;;;;;;;25.63;16.00;;;;;;;14.26;56.64;95077.44;5075112;28;20450;-75
2023/10/17 11:50:41;;;;;;;10.83;7.50;;;;;;;14.35;55.85;95070.44;5074873;28;20526;-74
2023/10/17 11:53:14;;;;;;;7.30;5.97;;;;;;;14.43;56.52;95064.44;5075072;28;20451;-74
2023/10/17 11:55:43;;;;;;;17.10;10.03;;;;;;;14.41;55.41;95066.34;5056382;28;20445;-74
2023/10/17 11:58:11;;;;;;;15.30;10.00;;;;;;;14.26;56.01;95068.69;5074706;28;20441;-75
2023/10/17 12:00:38;;;;;;;9.00;4.80;;;;;;;14.28;56.69;95066.72;5074866;28;20523;-75
2023/10/17 12:03:05;;;;;;;6.03;4.17;;;;;;;14.26;56.90;95068.69;5074686;28;20479;-74
2023/10/17 12:05:35;;;;;;;4.60;4.03;;;;;;;14.19;56.31;95076.38;5074819;28;20425;-75
2023/10/17 12:08:02;;;;;;;7.70;6.37;;;;;;;14.18;56.77;95072.06;5074732;28;20957;-74
2023/10/17 12:10:36;;;;;;;11.13;7.73;;;;;;;14.11;56.61;95072.78;5074293;28;20451;-75
2023/10/17 12:13:06;;;;;;;10.87;6.70;;;;;;;14.07;57.32;95064.34;5074774;28;20443;-74
2023/10/17 12:15:33;;;;;;;16.63;8.47;;;;;;;14.01;56.68;95075.47;5074521;28;20447;-75
2023/10/17 12:18:00;;;;;;;6.70;4.87;;;;;;;14.07;58.85;95071.41;5074221;28;20468;-75
2023/10/17 12:20:27;;;;;;;5.20;3.77;;;;;;;13.96;57.15;95069.81;5074490;28;20548;-74
2023/10/17 12:22:56;;;;;;;7.93;6.00;;;;;;;13.95;58.66;95060.25;5074295;28;21098;-74
2023/10/17 12:25:24;;;;;;;4.90;4.30;;;;;;;14.01;58.46;95064.94;5074255;28;20475;-74
2023/10/17 12:27:56;;;;;;;8.77;4.13;;;;;;;14.01;57.93;95058.81;5038661;28;20993;-75
2023/10/17 12:30:26;;;;;;;6.10;3.63;;;;;;;13.96;59.89;95064.53;5074312;28;20456;-74
2023/10/17 12:32:55;;;;;;;11.00;5.50;;;;;;;13.81;58.46;95058.06;5074035;28;20538;-75
2023/10/17 12:35:22;;;;;;;6.80;4.20;;;;;;;13.77;58.82;95056.72;5073897;28;20960;-74
2023/10/17 12:37:51;;;;;;;10.13;4.10;;;;;;;13.60;59.35;95051.22;5071535;28;20958;-75
2023/10/17 12:40:21;;;;;;;3.87;3.67;;;;;;;13.57;59.62;95056.78;5074259;28;20443;-74
2023/10/17 12:42:49;;;;;;;8.10;4.13;;;;;;;13.66;59.65;95051.63;5073884;28;20507;-74
2023/10/17 12:45:19;;;;;;;5.03;4.10;;;;;;;13.67;59.31;95042.75;5073279;28;20478;-74
2023/10/17 12:47:46;;;;;;;5.93;4.60;;;;;;;13.58;59.76;95045.25;5073920;28;20469;-74
2023/10/17 12:50:13;;;;;;;6.20;4.33;;;;;;;13.44;59.49;95047.53;5073694;28;20479;-74
2023/10/17 12:52:40;;;;;;;5.77;4.00;;;;;;;13.33;60.18;95045.91;5073577;28;20970;-74
2023/10/17 12:55:08;;;;;;;5.90;4.03;;;;;;;13.34;60.61;95044.94;5073805;28;20476;-74
2023/10/17 12:57:36;;;;;;;5.77;3.60;;;;;;;13.23;60.73;95047.72;5038777;28;20450;-74
2023/10/17 13:00:09;;;;;;;10.83;4.90;;;;;;;13.17;60.91;95059.66;5073856;28;20432;-74
2023/10/17 13:02:38;;;;;;;7.40;3.93;;;;;;;13.18;60.57;95052.59;5073378;28;20478;-74
2023/10/17 13:05:09;;;;;;;4.17;3.60;;;;;;;13.10;60.33;95052.44;5073547;28;20534;-74
2023/10/17 13:07:36;;;;;;;6.40;4.23;;;;;;;13.02;60.74;95047.88;5073713;28;20450;-74
2023/10/17 13:10:03;;;;;;;4.97;4.47;;;;;;;13.02;60.43;95056.63;5073825;28;20442;-75
2023/10/17 13:12:30;;;;;;;5.40;3.77;;;;;;;13.01;61.46;95038.31;5037923;28;20449;-76
2023/10/17 13:14:57;;;;;;;3.97;3.50;;;;;;;13.08;62.47;95055.22;5037828;28;20437;-74
2023/10/17 13:17:24;;;;;;;5.37;4.07;;;;;;;13.01;62.56;95056.75;5073382;28;20471;-74
2023/10/17 13:19:53;;;;;;;5.80;4.57;;;;;;;12.93;63.41;95057.44;5073361;28;20442;-75
2023/10/17 13:22:21;;;;;;;8.03;4.50;;;;;;;12.93;65.39;95046.06;5054408;28;20515;-75
2023/10/17 13:24:50;;;;;;;4.27;3.87;;;;;;;12.83;66.18;95051.34;5073231;28;20921;-74
2023/10/17 13:27:17;;;;;;;7.93;4.80;;;;;;;12.64;66.85;95052.19;5073261;28;20802;-74